sensor_id;sensor_type;location;lat;lon;timestamp;P1;durP1;ratioP1;P2;durP2;ratioP2
78854;SDS011;68206;59.956;30.234;2024-03-17T00:01:19;6.68;;;4.88;;
78854;SDS011;68206;59.956;30.234;2024-03-17T00:03:45;8.35;;;4.70;;
78854;SDS011;68206;59.956;30.234;2024-03-17T00:06:14;10.15;;;6.00;;
78854;SDS011;68206;59.956;30.234;2024-03-17T00:08:40;8.77;;;4.97;;
78854;SDS011;68206;59.956;30.234;2024-03-17T00:11:07;8.25;;;5.00;;
78854;SDS011;68206;59.956;30.234;2024-03-17T00:13:33;8.90;;;5.55;;
78854;SDS011;68206;59.956;30.234;2024-03-17T00:16:00;7.82;;;5.15;;
78854;SDS011;68206;59.956;30.234;2024-03-17T00:18:27;9.55;;;5.65;;
78854;SDS011;68206;59.956;30.234;2024-03-17T00:20:54;9.65;;;5.38;;
78854;SDS011;68206;59.956;30.234;2024-03-17T00:23:21;8.02;;;5.28;;
78854;SDS011;68206;59.956;30.234;2024-03-17T00:25:49;10.77;;;5.32;;
78854;SDS011;68206;59.956;30.234;2024-03-17T00:28:17;9.70;;;5.35;;
78854;SDS011;68206;59.956;30.234;2024-03-17T00:30:43;8.65;;;5.35;;
78854;SDS011;68206;59.956;30.234;2024-03-17T00:33:10;7.10;;;4.60;;
78854;SDS011;68206;59.956;30.234;2024-03-17T00:35:36;9.55;;;5.53;;
78854;SDS011;68206;59.956;30.234;2024-03-17T00:38:03;8.13;;;5.25;;
78854;SDS011;68206;59.956;30.234;2024-03-17T00:40:37;7.43;;;4.40;;
78854;SDS011;68206;59.956;30.234;2024-03-17T00:43:06;9.05;;;5.38;;
78854;SDS011;68206;59.956;30.234;2024-03-17T00:45:33;7.68;;;4.70;;
78854;SDS011;68206;59.956;30.234;2024-03-17T00:48:00;9.38;;;5.18;;
78854;SDS011;68206;59.956;30.234;2024-03-17T00:52:53;10.20;;;5.25;;
78854;SDS011;68206;59.956;30.234;2024-03-17T00:55:20;10.23;;;5.97;;
78854;SDS011;68206;59.956;30.234;2024-03-17T00:57:48;8.68;;;4.93;;
78854;SDS011;68206;59.956;30.234;2024-03-17T01:00:15;8.35;;;5.05;;
78854;SDS011;68206;59.956;30.234;2024-03-17T01:02:43;10.07;;;5.53;;
78854;SDS011;68206;59.956;30.234;2024-03-17T01:05:09;7.47;;;4.95;;
78854;SDS011;68206;59.956;30.234;2024-03-17T01:07:37;7.72;;;5.03;;
78854;SDS011;68206;59.956;30.234;2024-03-17T01:10:03;7.65;;;5.53;;
78854;SDS011;68206;59.956;30.234;2024-03-17T01:12:33;8.32;;;5.13;;
78854;SDS011;68206;59.956;30.234;2024-03-17T01:15:02;8.93;;;4.65;;
78854;SDS011;68206;59.956;30.234;2024-03-17T01:17:30;8.63;;;4.88;;
78854;SDS011;68206;59.956;30.234;2024-03-17T01:19:56;8.25;;;5.00;;
78854;SDS011;68206;59.956;30.234;2024-03-17T01:22:24;8.18;;;5.43;;
78854;SDS011;68206;59.956;30.234;2024-03-17T01:24:50;10.02;;;4.93;;
78854;SDS011;68206;59.956;30.234;2024-03-17T01:27:17;8.95;;;5.78;;
78854;SDS011;68206;59.956;30.234;2024-03-17T01:29:43;7.55;;;5.00;;
78854;SDS011;68206;59.956;30.234;2024-03-17T01:32:12;8.38;;;5.20;;
78854;SDS011;68206;59.956;30.234;2024-03-17T01:34:38;9.48;;;5.38;;
78854;SDS011;68206;59.956;30.234;2024-03-17T01:37:05;9.20;;;5.25;;
78854;SDS011;68206;59.956;30.234;2024-03-17T01:39:32;9.57;;;5.45;;
78854;SDS011;68206;59.956;30.234;2024-03-17T01:42:00;12.60;;;5.18;;
78854;SDS011;68206;59.956;30.234;2024-03-17T01:44:26;8.00;;;5.05;;
78854;SDS011;68206;59.956;30.234;2024-03-17T01:46:54;8.70;;;4.93;;
78854;SDS011;68206;59.956;30.234;2024-03-17T01:49:23;11.68;;;6.15;;
78854;SDS011;68206;59.956;30.234;2024-03-17T01:51:52;8.52;;;5.00;;
78854;SDS011;68206;59.956;30.234;2024-03-17T01:54:19;9.23;;;5.00;;
78854;SDS011;68206;59.956;30.234;2024-03-17T01:56:47;10.63;;;5.22;;
78854;SDS011;68206;59.956;30.234;2024-03-17T01:59:13;8.90;;;5.05;;
78854;SDS011;68206;59.956;30.234;2024-03-17T02:01:41;9.77;;;5.63;;
78854;SDS011;68206;59.956;30.234;2024-03-17T02:04:07;8.60;;;5.10;;
78854;SDS011;68206;59.956;30.234;2024-03-17T02:06:35;7.68;;;4.90;;
78854;SDS011;68206;59.956;30.234;2024-03-17T02:09:02;9.77;;;5.47;;
78854;SDS011;68206;59.956;30.234;2024-03-17T02:11:30;8.20;;;5.07;;
78854;SDS011;68206;59.956;30.234;2024-03-17T02:13:57;10.48;;;5.35;;
78854;SDS011;68206;59.956;30.234;2024-03-17T02:16:25;7.20;;;4.55;;
78854;SDS011;68206;59.956;30.234;2024-03-17T02:18:53;8.57;;;5.43;;
78854;SDS011;68206;59.956;30.234;2024-03-17T02:21:21;7.85;;;4.75;;
78854;SDS011;68206;59.956;30.234;2024-03-17T02:23:50;9.02;;;5.10;;
78854;SDS011;68206;59.956;30.234;2024-03-17T02:26:17;7.05;;;4.38;;
78854;SDS011;68206;59.956;30.234;2024-03-17T02:28:45;8.32;;;4.38;;
78854;SDS011;68206;59.956;30.234;2024-03-17T02:31:14;7.00;;;4.70;;
78854;SDS011;68206;59.956;30.234;2024-03-17T02:33:41;8.68;;;4.72;;
78854;SDS011;68206;59.956;30.234;2024-03-17T02:36:09;8.65;;;5.05;;
78854;SDS011;68206;59.956;30.234;2024-03-17T02:38:37;8.43;;;5.25;;
78854;SDS011;68206;59.956;30.234;2024-03-17T02:41:24;9.23;;;6.10;;
78854;SDS011;68206;59.956;30.234;2024-03-17T02:43:51;8.20;;;4.75;;
78854;SDS011;68206;59.956;30.234;2024-03-17T02:46:18;8.60;;;5.10;;
78854;SDS011;68206;59.956;30.234;2024-03-17T02:48:47;7.90;;;4.82;;
78854;SDS011;68206;59.956;30.234;2024-03-17T02:51:17;7.30;;;4.60;;
78854;SDS011;68206;59.956;30.234;2024-03-17T02:53:46;9.80;;;5.38;;
78854;SDS011;68206;59.956;30.234;2024-03-17T02:56:14;7.63;;;4.78;;
78854;SDS011;68206;59.956;30.234;2024-03-17T02:58:44;7.05;;;4.55;;
78854;SDS011;68206;59.956;30.234;2024-03-17T03:01:13;7.47;;;4.93;;
78854;SDS011;68206;59.956;30.234;2024-03-17T03:03:41;7.38;;;4.93;;
78854;SDS011;68206;59.956;30.234;2024-03-17T03:06:08;7.57;;;4.45;;
78854;SDS011;68206;59.956;30.234;2024-03-17T03:08:37;5.95;;;4.20;;
78854;SDS011;68206;59.956;30.234;2024-03-17T03:11:06;10.45;;;5.20;;
78854;SDS011;68206;59.956;30.234;2024-03-17T03:13:37;9.25;;;4.45;;
78854;SDS011;68206;59.956;30.234;2024-03-17T03:16:07;7.95;;;4.43;;
78854;SDS011;68206;59.956;30.234;2024-03-17T03:18:35;7.32;;;4.75;;
78854;SDS011;68206;59.956;30.234;2024-03-17T03:21:02;9.20;;;4.53;;
78854;SDS011;68206;59.956;30.234;2024-03-17T03:23:30;7.15;;;4.75;;
78854;SDS011;68206;59.956;30.234;2024-03-17T03:25:57;8.15;;;4.65;;
78854;SDS011;68206;59.956;30.234;2024-03-17T03:28:26;8.90;;;4.45;;
78854;SDS011;68206;59.956;30.234;2024-03-17T03:30:52;9.13;;;4.93;;
78854;SDS011;68206;59.956;30.234;2024-03-17T03:33:21;7.13;;;4.30;;
78854;SDS011;68206;59.956;30.234;2024-03-17T03:35:48;7.68;;;4.60;;
78854;SDS011;68206;59.956;30.234;2024-03-17T03:38:16;7.80;;;4.70;;
78854;SDS011;68206;59.956;30.234;2024-03-17T03:40:44;8.13;;;4.95;;
78854;SDS011;68206;59.956;30.234;2024-03-17T03:43:13;6.53;;;4.32;;
78854;SDS011;68206;59.956;30.234;2024-03-17T03:45:40;6.72;;;4.57;;
78854;SDS011;68206;59.956;30.234;2024-03-17T03:48:08;6.68;;;4.43;;
78854;SDS011;68206;59.956;30.234;2024-03-17T03:50:37;5.90;;;4.22;;
78854;SDS011;68206;59.956;30.234;2024-03-17T03:53:04;6.60;;;4.65;;
78854;SDS011;68206;59.956;30.234;2024-03-17T03:55:32;6.20;;;4.20;;
78854;SDS011;68206;59.956;30.234;2024-03-17T03:57:59;7.72;;;4.32;;
78854;SDS011;68206;59.956;30.234;2024-03-17T04:00:29;6.97;;;4.55;;
78854;SDS011;68206;59.956;30.234;2024-03-17T04:02:58;7.32;;;4.40;;
78854;SDS011;68206;59.956;30.234;2024-03-17T04:05:26;7.50;;;4.57;;
78854;SDS011;68206;59.956;30.234;2024-03-17T04:07:54;7.18;;;4.00;;
78854;SDS011;68206;59.956;30.234;2024-03-17T04:10:21;5.47;;;3.78;;
78854;SDS011;68206;59.956;30.234;2024-03-17T04:12:49;7.30;;;4.28;;
78854;SDS011;68206;59.956;30.234;2024-03-17T04:15:17;6.15;;;4.35;;
78854;SDS011;68206;59.956;30.234;2024-03-17T04:17:44;6.13;;;4.25;;
78854;SDS011;68206;59.956;30.234;2024-03-17T04:20:13;6.97;;;3.97;;
78854;SDS011;68206;59.956;30.234;2024-03-17T04:22:40;6.35;;;4.05;;
78854;SDS011;68206;59.956;30.234;2024-03-17T04:25:10;7.93;;;4.18;;
78854;SDS011;68206;59.956;30.234;2024-03-17T04:27:37;7.18;;;4.38;;
78854;SDS011;68206;59.956;30.234;2024-03-17T04:30:05;7.93;;;4.40;;
78854;SDS011;68206;59.956;30.234;2024-03-17T04:32:33;8.13;;;4.45;;
78854;SDS011;68206;59.956;30.234;2024-03-17T04:35:00;7.38;;;4.10;;
78854;SDS011;68206;59.956;30.234;2024-03-17T04:37:28;8.77;;;4.53;;
78854;SDS011;68206;59.956;30.234;2024-03-17T04:39:55;7.90;;;4.30;;
78854;SDS011;68206;59.956;30.234;2024-03-17T04:42:24;7.50;;;5.05;;
78854;SDS011;68206;59.956;30.234;2024-03-17T04:44:51;8.07;;;4.82;;
78854;SDS011;68206;59.956;30.234;2024-03-17T04:47:19;6.68;;;4.53;;
78854;SDS011;68206;59.956;30.234;2024-03-17T04:49:46;9.07;;;4.90;;
78854;SDS011;68206;59.956;30.234;2024-03-17T04:52:13;6.88;;;4.30;;
78854;SDS011;68206;59.956;30.234;2024-03-17T04:54:42;7.05;;;4.65;;
78854;SDS011;68206;59.956;30.234;2024-03-17T04:57:09;7.25;;;4.70;;
78854;SDS011;68206;59.956;30.234;2024-03-17T04:59:38;6.00;;;3.88;;
78854;SDS011;68206;59.956;30.234;2024-03-17T05:02:05;7.63;;;4.45;;
78854;SDS011;68206;59.956;30.234;2024-03-17T05:04:32;7.05;;;4.10;;
78854;SDS011;68206;59.956;30.234;2024-03-17T05:06:59;6.30;;;4.25;;
78854;SDS011;68206;59.956;30.234;2024-03-17T05:09:26;6.63;;;4.15;;
78854;SDS011;68206;59.956;30.234;2024-03-17T05:11:53;8.05;;;4.85;;
78854;SDS011;68206;59.956;30.234;2024-03-17T05:14:20;6.05;;;4.00;;
78854;SDS011;68206;59.956;30.234;2024-03-17T05:16:49;8.27;;;4.60;;
78854;SDS011;68206;59.956;30.234;2024-03-17T05:19:17;8.73;;;4.72;;
78854;SDS011;68206;59.956;30.234;2024-03-17T05:21:44;6.35;;;4.10;;
78854;SDS011;68206;59.956;30.234;2024-03-17T05:24:12;7.55;;;4.60;;
78854;SDS011;68206;59.956;30.234;2024-03-17T05:26:39;8.48;;;4.07;;
78854;SDS011;68206;59.956;30.234;2024-03-17T05:29:07;6.32;;;4.20;;
78854;SDS011;68206;59.956;30.234;2024-03-17T05:31:35;6.70;;;4.15;;
78854;SDS011;68206;59.956;30.234;2024-03-17T05:34:06;6.20;;;4.55;;
78854;SDS011;68206;59.956;30.234;2024-03-17T05:36:35;8.55;;;5.07;;
78854;SDS011;68206;59.956;30.234;2024-03-17T05:39:02;7.72;;;3.97;;
78854;SDS011;68206;59.956;30.234;2024-03-17T05:41:29;6.93;;;4.90;;
78854;SDS011;68206;59.956;30.234;2024-03-17T05:43:56;7.93;;;4.65;;
78854;SDS011;68206;59.956;30.234;2024-03-17T05:46:24;9.45;;;5.18;;
78854;SDS011;68206;59.956;30.234;2024-03-17T05:48:53;6.97;;;4.90;;
78854;SDS011;68206;59.956;30.234;2024-03-17T05:51:21;8.10;;;4.88;;
78854;SDS011;68206;59.956;30.234;2024-03-17T05:53:51;7.45;;;4.72;;
78854;SDS011;68206;59.956;30.234;2024-03-17T05:56:18;8.77;;;5.40;;
78854;SDS011;68206;59.956;30.234;2024-03-17T05:58:48;10.15;;;5.45;;
78854;SDS011;68206;59.956;30.234;2024-03-17T06:01:15;11.15;;;6.03;;
78854;SDS011;68206;59.956;30.234;2024-03-17T06:03:42;8.38;;;5.40;;
78854;SDS011;68206;59.956;30.234;2024-03-17T06:06:10;8.43;;;5.57;;
78854;SDS011;68206;59.956;30.234;2024-03-17T06:08:38;9.88;;;5.43;;
78854;SDS011;68206;59.956;30.234;2024-03-17T06:11:06;11.65;;;5.32;;
78854;SDS011;68206;59.956;30.234;2024-03-17T06:13:33;9.25;;;5.43;;
78854;SDS011;68206;59.956;30.234;2024-03-17T06:16:02;10.43;;;5.85;;
78854;SDS011;68206;59.956;30.234;2024-03-17T06:18:31;9.98;;;5.97;;
78854;SDS011;68206;59.956;30.234;2024-03-17T06:20:58;10.43;;;5.88;;
78854;SDS011;68206;59.956;30.234;2024-03-17T06:23:26;9.57;;;5.78;;
78854;SDS011;68206;59.956;30.234;2024-03-17T06:25:57;10.40;;;5.90;;
78854;SDS011;68206;59.956;30.234;2024-03-17T06:28:25;9.20;;;5.93;;
78854;SDS011;68206;59.956;30.234;2024-03-17T06:30:55;10.52;;;6.05;;
78854;SDS011;68206;59.956;30.234;2024-03-17T06:33:25;12.07;;;6.72;;
78854;SDS011;68206;59.956;30.234;2024-03-17T06:35:54;15.80;;;7.78;;
78854;SDS011;68206;59.956;30.234;2024-03-17T06:38:22;13.27;;;6.75;;
78854;SDS011;68206;59.956;30.234;2024-03-17T06:40:50;11.73;;;6.45;;
78854;SDS011;68206;59.956;30.234;2024-03-17T06:43:19;10.27;;;6.10;;
78854;SDS011;68206;59.956;30.234;2024-03-17T06:45:53;8.85;;;5.85;;
78854;SDS011;68206;59.956;30.234;2024-03-17T06:48:21;6.53;;;4.55;;
78854;SDS011;68206;59.956;30.234;2024-03-17T06:50:49;6.53;;;3.90;;
78854;SDS011;68206;59.956;30.234;2024-03-17T06:53:17;6.78;;;3.33;;
78854;SDS011;68206;59.956;30.234;2024-03-17T06:55:51;5.32;;;2.83;;
78854;SDS011;68206;59.956;30.234;2024-03-17T06:58:21;4.35;;;2.75;;
78854;SDS011;68206;59.956;30.234;2024-03-17T07:00:55;4.15;;;2.65;;
78854;SDS011;68206;59.956;30.234;2024-03-17T07:03:25;3.75;;;2.13;;
78854;SDS011;68206;59.956;30.234;2024-03-17T07:05:52;4.25;;;1.75;;
78854;SDS011;68206;59.956;30.234;2024-03-17T07:08:21;2.28;;;1.50;;
78854;SDS011;68206;59.956;30.234;2024-03-17T07:10:55;2.38;;;1.60;;
78854;SDS011;68206;59.956;30.234;2024-03-17T07:13:24;2.22;;;1.60;;
78854;SDS011;68206;59.956;30.234;2024-03-17T07:15:52;2.10;;;1.52;;
78854;SDS011;68206;59.956;30.234;2024-03-17T07:18:19;2.85;;;1.67;;
78854;SDS011;68206;59.956;30.234;2024-03-17T07:20:46;2.17;;;1.50;;
78854;SDS011;68206;59.956;30.234;2024-03-17T07:23:14;1.40;;;1.25;;
78854;SDS011;68206;59.956;30.234;2024-03-17T07:25:42;2.05;;;1.50;;
78854;SDS011;68206;59.956;30.234;2024-03-17T07:28:18;2.42;;;1.50;;
78854;SDS011;68206;59.956;30.234;2024-03-17T07:30:47;2.53;;;1.40;;
78854;SDS011;68206;59.956;30.234;2024-03-17T07:33:15;1.92;;;1.30;;
78854;SDS011;68206;59.956;30.234;2024-03-17T07:35:46;1.40;;;1.30;;
78854;SDS011;68206;59.956;30.234;2024-03-17T07:38:14;1.73;;;1.20;;
78854;SDS011;68206;59.956;30.234;2024-03-17T07:40:41;1.73;;;1.13;;
78854;SDS011;68206;59.956;30.234;2024-03-17T07:43:09;1.60;;;1.10;;
78854;SDS011;68206;59.956;30.234;2024-03-17T07:45:36;1.67;;;1.10;;
78854;SDS011;68206;59.956;30.234;2024-03-17T07:48:05;1.08;;;0.98;;
78854;SDS011;68206;59.956;30.234;2024-03-17T07:50:32;1.60;;;1.23;;
78854;SDS011;68206;59.956;30.234;2024-03-17T07:53:00;2.15;;;1.48;;
78854;SDS011;68206;59.956;30.234;2024-03-17T07:55:29;1.83;;;1.10;;
78854;SDS011;68206;59.956;30.234;2024-03-17T07:57:57;1.10;;;1.02;;
78854;SDS011;68206;59.956;30.234;2024-03-17T08:00:24;1.00;;;0.75;;
78854;SDS011;68206;59.956;30.234;2024-03-17T08:02:51;2.25;;;1.02;;
78854;SDS011;68206;59.956;30.234;2024-03-17T08:05:20;1.13;;;1.02;;
78854;SDS011;68206;59.956;30.234;2024-03-17T08:07:48;1.25;;;1.15;;
78854;SDS011;68206;59.956;30.234;2024-03-17T08:10:18;2.50;;;1.40;;
78854;SDS011;68206;59.956;30.234;2024-03-17T08:12:45;4.60;;;1.30;;
78854;SDS011;68206;59.956;30.234;2024-03-17T08:15:12;1.95;;;1.05;;
78854;SDS011;68206;59.956;30.234;2024-03-17T08:17:40;1.13;;;0.93;;
78854;SDS011;68206;59.956;30.234;2024-03-17T08:20:07;1.27;;;1.08;;
78854;SDS011;68206;59.956;30.234;2024-03-17T08:22:36;1.88;;;1.20;;
78854;SDS011;68206;59.956;30.234;2024-03-17T08:25:04;1.30;;;1.13;;
78854;SDS011;68206;59.956;30.234;2024-03-17T08:27:31;1.13;;;1.00;;
78854;SDS011;68206;59.956;30.234;2024-03-17T08:29:58;0.95;;;0.85;;
78854;SDS011;68206;59.956;30.234;2024-03-17T08:32:26;1.42;;;1.10;;
78854;SDS011;68206;59.956;30.234;2024-03-17T08:34:53;1.20;;;1.08;;
78854;SDS011;68206;59.956;30.234;2024-03-17T08:37:21;1.50;;;1.10;;
78854;SDS011;68206;59.956;30.234;2024-03-17T08:39:53;1.55;;;1.23;;
78854;SDS011;68206;59.956;30.234;2024-03-17T08:42:20;1.50;;;1.00;;
78854;SDS011;68206;59.956;30.234;2024-03-17T08:44:47;1.77;;;1.25;;
78854;SDS011;68206;59.956;30.234;2024-03-17T08:47:13;1.67;;;1.40;;
78854;SDS011;68206;59.956;30.234;2024-03-17T08:49:40;1.80;;;0.98;;
78854;SDS011;68206;59.956;30.234;2024-03-17T08:52:07;1.67;;;1.25;;
78854;SDS011;68206;59.956;30.234;2024-03-17T08:54:35;1.75;;;1.08;;
78854;SDS011;68206;59.956;30.234;2024-03-17T08:57:04;1.42;;;1.10;;
78854;SDS011;68206;59.956;30.234;2024-03-17T08:59:31;1.77;;;1.17;;
78854;SDS011;68206;59.956;30.234;2024-03-17T09:01:58;1.38;;;0.90;;
78854;SDS011;68206;59.956;30.234;2024-03-17T09:04:26;1.45;;;1.00;;
78854;SDS011;68206;59.956;30.234;2024-03-17T09:06:53;1.65;;;1.00;;
78854;SDS011;68206;59.956;30.234;2024-03-17T09:09:21;1.30;;;0.77;;
78854;SDS011;68206;59.956;30.234;2024-03-17T09:11:49;0.75;;;0.75;;
78854;SDS011;68206;59.956;30.234;2024-03-17T09:14:19;1.45;;;1.13;;
78854;SDS011;68206;59.956;30.234;2024-03-17T09:16:47;0.77;;;0.77;;
78854;SDS011;68206;59.956;30.234;2024-03-17T09:19:15;0.68;;;0.63;;
78854;SDS011;68206;59.956;30.234;2024-03-17T09:21:42;0.95;;;0.73;;
78854;SDS011;68206;59.956;30.234;2024-03-17T09:24:10;0.93;;;0.82;;
78854;SDS011;68206;59.956;30.234;2024-03-17T09:26:38;1.00;;;0.80;;
78854;SDS011;68206;59.956;30.234;2024-03-17T09:29:06;2.80;;;1.00;;
78854;SDS011;68206;59.956;30.234;2024-03-17T09:31:34;1.00;;;0.65;;
78854;SDS011;68206;59.956;30.234;2024-03-17T09:34:02;0.90;;;0.82;;
78854;SDS011;68206;59.956;30.234;2024-03-17T09:36:30;0.98;;;0.77;;
78854;SDS011;68206;59.956;30.234;2024-03-17T09:38:57;1.70;;;0.68;;
78854;SDS011;68206;59.956;30.234;2024-03-17T09:41:26;1.10;;;0.85;;
78854;SDS011;68206;59.956;30.234;2024-03-17T09:43:55;0.75;;;0.75;;
78854;SDS011;68206;59.956;30.234;2024-03-17T09:46:23;1.00;;;0.90;;
78854;SDS011;68206;59.956;30.234;2024-03-17T09:48:53;1.05;;;0.70;;
78854;SDS011;68206;59.956;30.234;2024-03-17T09:51:23;1.27;;;0.60;;
78854;SDS011;68206;59.956;30.234;2024-03-17T09:53:52;1.33;;;0.88;;
78854;SDS011;68206;59.956;30.234;2024-03-17T09:56:20;0.57;;;0.55;;
78854;SDS011;68206;59.956;30.234;2024-03-17T09:58:48;0.82;;;0.82;;
78854;SDS011;68206;59.956;30.234;2024-03-17T10:01:17;1.73;;;1.27;;
78854;SDS011;68206;59.956;30.234;2024-03-17T10:03:51;3.20;;;1.10;;
78854;SDS011;68206;59.956;30.234;2024-03-17T10:06:22;0.70;;;0.70;;
78854;SDS011;68206;59.956;30.234;2024-03-17T10:08:50;0.70;;;0.70;;
78854;SDS011;68206;59.956;30.234;2024-03-17T10:11:19;0.85;;;0.70;;
78854;SDS011;68206;59.956;30.234;2024-03-17T10:13:58;0.95;;;0.70;;
78854;SDS011;68206;59.956;30.234;2024-03-17T10:16:28;0.95;;;0.85;;
78854;SDS011;68206;59.956;30.234;2024-03-17T10:19:05;0.55;;;0.55;;
78854;SDS011;68206;59.956;30.234;2024-03-17T10:21:37;0.65;;;0.40;;
78854;SDS011;68206;59.956;30.234;2024-03-17T10:24:05;1.70;;;0.80;;
78854;SDS011;68206;59.956;30.234;2024-03-17T10:26:38;0.68;;;0.68;;
78854;SDS011;68206;59.956;30.234;2024-03-17T10:31:52;0.85;;;0.82;;
78854;SDS011;68206;59.956;30.234;2024-03-17T10:34:20;0.88;;;0.63;;
78854;SDS011;68206;59.956;30.234;2024-03-17T10:36:51;0.40;;;0.40;;
78854;SDS011;68206;59.956;30.234;2024-03-17T10:39:23;2.63;;;1.08;;
78854;SDS011;68206;59.956;30.234;2024-03-17T10:41:57;1.13;;;0.80;;
78854;SDS011;68206;59.956;30.234;2024-03-17T10:44:26;1.33;;;0.55;;
78854;SDS011;68206;59.956;30.234;2024-03-17T10:46:55;0.73;;;0.47;;
78854;SDS011;68206;59.956;30.234;2024-03-17T10:49:24;0.57;;;0.43;;
78854;SDS011;68206;59.956;30.234;2024-03-17T10:51:58;0.40;;;0.40;;
78854;SDS011;68206;59.956;30.234;2024-03-17T10:54:26;0.47;;;0.30;;
78854;SDS011;68206;59.956;30.234;2024-03-17T10:56:54;0.90;;;0.40;;
78854;SDS011;68206;59.956;30.234;2024-03-17T10:59:26;0.32;;;0.32;;
78854;SDS011;68206;59.956;30.234;2024-03-17T11:02:00;0.70;;;0.43;;
78854;SDS011;68206;59.956;30.234;2024-03-17T11:04:29;0.52;;;0.50;;
78854;SDS011;68206;59.956;30.234;2024-03-17T11:06:59;1.55;;;0.73;;
78854;SDS011;68206;59.956;30.234;2024-03-17T11:09:27;1.05;;;0.47;;
78854;SDS011;68206;59.956;30.234;2024-03-17T11:11:54;0.30;;;0.30;;
78854;SDS011;68206;59.956;30.234;2024-03-17T11:14:22;1.92;;;0.90;;
78854;SDS011;68206;59.956;30.234;2024-03-17T11:16:50;0.73;;;0.70;;
78854;SDS011;68206;59.956;30.234;2024-03-17T11:19:16;0.65;;;0.65;;
78854;SDS011;68206;59.956;30.234;2024-03-17T11:21:44;1.27;;;0.80;;
78854;SDS011;68206;59.956;30.234;2024-03-17T11:24:20;0.52;;;0.32;;
78854;SDS011;68206;59.956;30.234;2024-03-17T11:26:48;0.73;;;0.68;;
78854;SDS011;68206;59.956;30.234;2024-03-17T11:29:28;0.45;;;0.45;;
78854;SDS011;68206;59.956;30.234;2024-03-17T11:31:58;0.25;;;0.20;;
78854;SDS011;68206;59.956;30.234;2024-03-17T11:34:26;0.60;;;0.50;;
78854;SDS011;68206;59.956;30.234;2024-03-17T11:36:56;0.95;;;0.55;;
78854;SDS011;68206;59.956;30.234;2024-03-17T11:42:29;2.35;;;0.70;;
78854;SDS011;68206;59.956;30.234;2024-03-17T11:44:58;0.28;;;0.20;;
78854;SDS011;68206;59.956;30.234;2024-03-17T11:47:33;0.50;;;0.47;;
78854;SDS011;68206;59.956;30.234;2024-03-17T11:50:02;0.50;;;0.40;;
78854;SDS011;68206;59.956;30.234;2024-03-17T11:52:30;0.52;;;0.45;;
78854;SDS011;68206;59.956;30.234;2024-03-17T11:54:57;0.43;;;0.20;;
78854;SDS011;68206;59.956;30.234;2024-03-17T11:57:25;0.90;;;0.52;;
78854;SDS011;68206;59.956;30.234;2024-03-17T11:59:54;0.63;;;0.30;;
78854;SDS011;68206;59.956;30.234;2024-03-17T12:02:24;1.45;;;0.50;;
78854;SDS011;68206;59.956;30.234;2024-03-17T12:04:52;0.77;;;0.50;;
78854;SDS011;68206;59.956;30.234;2024-03-17T12:07:20;1.05;;;0.60;;
78854;SDS011;68206;59.956;30.234;2024-03-17T12:09:49;1.52;;;0.47;;
78854;SDS011;68206;59.956;30.234;2024-03-17T12:12:18;0.60;;;0.60;;
78854;SDS011;68206;59.956;30.234;2024-03-17T12:14:46;0.50;;;0.43;;
78854;SDS011;68206;59.956;30.234;2024-03-17T12:17:20;0.43;;;0.43;;
78854;SDS011;68206;59.956;30.234;2024-03-17T12:22:15;1.70;;;0.43;;
78854;SDS011;68206;59.956;30.234;2024-03-17T12:24:44;0.22;;;0.22;;
78854;SDS011;68206;59.956;30.234;2024-03-17T12:27:16;0.50;;;0.43;;
78854;SDS011;68206;59.956;30.234;2024-03-17T12:29:44;0.47;;;0.40;;
78854;SDS011;68206;59.956;30.234;2024-03-17T12:32:12;0.25;;;0.25;;
78854;SDS011;68206;59.956;30.234;2024-03-17T12:34:42;0.82;;;0.60;;
78854;SDS011;68206;59.956;30.234;2024-03-17T12:37:13;1.15;;;0.57;;
78854;SDS011;68206;59.956;30.234;2024-03-17T12:39:43;0.52;;;0.50;;
78854;SDS011;68206;59.956;30.234;2024-03-17T12:42:12;1.55;;;0.63;;
78854;SDS011;68206;59.956;30.234;2024-03-17T12:44:39;0.52;;;0.47;;
78854;SDS011;68206;59.956;30.234;2024-03-17T12:47:14;0.43;;;0.40;;
78854;SDS011;68206;59.956;30.234;2024-03-17T12:49:45;1.73;;;0.50;;
78854;SDS011;68206;59.956;30.234;2024-03-17T12:52:18;0.43;;;0.40;;
78854;SDS011;68206;59.956;30.234;2024-03-17T12:54:45;0.63;;;0.50;;
78854;SDS011;68206;59.956;30.234;2024-03-17T12:57:43;2.60;;;0.57;;
78854;SDS011;68206;59.956;30.234;2024-03-17T13:00:28;0.20;;;0.20;;
78854;SDS011;68206;59.956;30.234;2024-03-17T13:02:59;0.57;;;0.40;;
78854;SDS011;68206;59.956;30.234;2024-03-17T13:05:29;0.40;;;0.40;;
78854;SDS011;68206;59.956;30.234;2024-03-17T13:07:57;0.88;;;0.63;;
78854;SDS011;68206;59.956;30.234;2024-03-17T13:10:25;0.65;;;0.45;;
78854;SDS011;68206;59.956;30.234;2024-03-17T13:13:02;1.40;;;0.65;;
78854;SDS011;68206;59.956;30.234;2024-03-17T13:15:31;0.68;;;0.57;;
78854;SDS011;68206;59.956;30.234;2024-03-17T13:17:58;1.55;;;0.70;;
78854;SDS011;68206;59.956;30.234;2024-03-17T13:20:26;3.00;;;0.70;;
78854;SDS011;68206;59.956;30.234;2024-03-17T13:22:55;0.47;;;0.47;;
78854;SDS011;68206;59.956;30.234;2024-03-17T13:25:23;1.08;;;0.63;;
78854;SDS011;68206;59.956;30.234;2024-03-17T13:27:53;1.00;;;0.52;;
78854;SDS011;68206;59.956;30.234;2024-03-17T13:30:23;0.52;;;0.45;;
78854;SDS011;68206;59.956;30.234;2024-03-17T13:32:54;2.45;;;0.70;;
78854;SDS011;68206;59.956;30.234;2024-03-17T13:35:24;0.68;;;0.60;;
78854;SDS011;68206;59.956;30.234;2024-03-17T13:37:52;4.07;;;0.70;;
78854;SDS011;68206;59.956;30.234;2024-03-17T13:40:22;0.70;;;0.50;;
78854;SDS011;68206;59.956;30.234;2024-03-17T13:42:50;0.28;;;0.28;;
78854;SDS011;68206;59.956;30.234;2024-03-17T13:45:19;0.98;;;0.55;;
78854;SDS011;68206;59.956;30.234;2024-03-17T13:47:48;0.95;;;0.50;;
78854;SDS011;68206;59.956;30.234;2024-03-17T13:50:21;2.75;;;0.60;;
78854;SDS011;68206;59.956;30.234;2024-03-17T13:52:49;0.50;;;0.35;;
78854;SDS011;68206;59.956;30.234;2024-03-17T13:55:17;0.60;;;0.35;;
78854;SDS011;68206;59.956;30.234;2024-03-17T13:57:48;0.82;;;0.57;;
78854;SDS011;68206;59.956;30.234;2024-03-17T14:00:18;2.85;;;0.63;;
78854;SDS011;68206;59.956;30.234;2024-03-17T14:02:47;0.60;;;0.25;;
78854;SDS011;68206;59.956;30.234;2024-03-17T14:05:16;1.20;;;0.50;;
78854;SDS011;68206;59.956;30.234;2024-03-17T14:07:45;0.60;;;0.60;;
78854;SDS011;68206;59.956;30.234;2024-03-17T14:10:13;0.73;;;0.63;;
78854;SDS011;68206;59.956;30.234;2024-03-17T14:12:44;3.97;;;0.70;;
78854;SDS011;68206;59.956;30.234;2024-03-17T14:15:13;0.55;;;0.40;;
78854;SDS011;68206;59.956;30.234;2024-03-17T14:17:42;0.80;;;0.63;;
78854;SDS011;68206;59.956;30.234;2024-03-17T14:20:11;0.98;;;0.45;;
78854;SDS011;68206;59.956;30.234;2024-03-17T14:22:39;0.40;;;0.35;;
78854;SDS011;68206;59.956;30.234;2024-03-17T14:25:08;2.75;;;0.88;;
78854;SDS011;68206;59.956;30.234;2024-03-17T14:27:37;5.78;;;1.23;;
78854;SDS011;68206;59.956;30.234;2024-03-17T14:30:04;0.40;;;0.38;;
78854;SDS011;68206;59.956;30.234;2024-03-17T14:32:34;0.40;;;0.40;;
78854;SDS011;68206;59.956;30.234;2024-03-17T14:35:02;0.20;;;0.20;;
78854;SDS011;68206;59.956;30.234;2024-03-17T14:37:31;2.30;;;0.43;;
78854;SDS011;68206;59.956;30.234;2024-03-17T14:39:58;0.20;;;0.20;;
78854;SDS011;68206;59.956;30.234;2024-03-17T14:42:25;0.40;;;0.40;;
78854;SDS011;68206;59.956;30.234;2024-03-17T14:44:53;3.83;;;0.60;;
78854;SDS011;68206;59.956;30.234;2024-03-17T14:47:21;1.15;;;0.80;;
78854;SDS011;68206;59.956;30.234;2024-03-17T14:49:50;0.70;;;0.43;;
78854;SDS011;68206;59.956;30.234;2024-03-17T14:52:18;1.35;;;0.95;;